Time;durP1;ratioP1;P1;durP2;ratioP2;P2;SDS_P1;SDS_P2;PMS_P1;PMS_P2;Temp;Humidity;BMP_temperature;BMP_pressure;BME280_temperature;BME280_humidity;BME280_pressure;Samples;Min_cycle;Max_cycle;Signal;HPM_P1;HPM_P2
2023/05/25 00:00:09;;;;;;;0.30;0.30;;;;;;;12.31;77.37;100811.78;5103393;28;20028;-61
2023/05/25 00:02:35;;;;;;;0.30;0.30;;;;;;;12.30;77.77;100823.94;5113769;22;20080;-58
2023/05/25 00:05:01;;;;;;;0.30;0.30;;;;;;;12.26;77.36;100815.31;5107675;23;20052;-64
2023/05/25 00:07:27;;;;;;;0.30;0.30;;;;;;;12.19;77.71;100813.63;5101438;28;20031;-64
2023/05/25 00:09:52;;;;;;;0.68;0.68;;;;;;;12.17;77.74;100822.34;5103859;28;20039;-64
2023/05/25 00:12:18;;;;;;;0.50;0.50;;;;;;;12.13;77.71;100824.09;5103976;28;20024;-65
2023/05/25 00:14:43;;;;;;;0.30;0.30;;;;;;;12.08;77.95;100829.34;5104014;28;20035;-65
2023/05/25 00:17:10;;;;;;;0.30;0.30;;;;;;;12.04;78.57;100822.41;5103888;28;20284;-66
2023/05/25 00:19:36;;;;;;;0.30;0.30;;;;;;;12.02;78.64;100816.34;5103440;28;20020;-66
2023/05/25 00:22:01;;;;;;;0.30;0.30;;;;;;;11.94;79.01;100807.72;5103894;28;20023;-66
2023/05/25 00:24:30;;;;;;;1.40;0.80;;;;;;;11.95;79.64;100830.28;5086078;28;20396;-66
2023/05/25 00:26:56;;;;;;;0.30;0.30;;;;;;;11.92;80.17;100825.94;5103589;28;20479;-66
2023/05/25 00:29:22;;;;;;;0.40;0.40;;;;;;;11.92;80.55;100819.91;5102520;28;20031;-66
2023/05/25 00:31:49;;;;;;;0.30;0.30;;;;;;;11.94;80.81;100833.75;5115543;22;20048;-60
2023/05/25 00:34:15;;;;;;;0.40;0.40;;;;;;;11.81;81.17;100815.63;5117635;22;20051;-63
2023/05/25 00:36:42;;;;;;;0.30;0.30;;;;;;;11.90;81.04;100828.56;5116141;22;20109;-59
2023/05/25 00:39:08;;;;;;;0.30;0.30;;;;;;;11.89;81.30;100836.38;5042450;28;20431;-59
2023/05/25 00:41:40;;;;;;;0.30;0.30;;;;;;;11.88;81.63;100834.66;5043489;28;20251;-59
2023/05/25 00:44:05;;;;;;;;;;;;;;;11.86;82.77;100833.78;5044199;28;20021;-60
2023/05/25 00:46:33;;;;;;;3.03;0.80;;;;;;;11.81;81.40;100823.44;5047207;28;19935;-60
2023/05/25 00:48:58;;;;;;;0.30;0.30;;;;;;;11.77;81.43;100835.59;5047439;28;20036;-59
2023/05/25 00:51:25;;;;;;;0.30;0.30;;;;;;;11.75;81.85;100828.66;5047623;28;20017;-59
2023/05/25 00:53:50;;;;;;;0.50;0.50;;;;;;;11.74;82.13;100837.34;5047477;28;20040;-60
2023/05/25 00:56:29;;;;;;;0.68;0.68;;;;;;;11.70;83.02;100848.63;5047702;28;20030;-60
2023/05/25 00:58:55;;;;;;;0.30;0.30;;;;;;;11.68;83.52;100855.59;5047551;28;20025;-60
2023/05/25 01:01:24;;;;;;;0.40;0.40;;;;;;;11.65;83.70;100849.53;5047625;28;20072;-60
2023/05/25 01:03:54;;;;;;;0.30;0.30;;;;;;;11.70;83.03;100849.50;5047275;28;20025;-60
2023/05/25 01:06:21;;;;;;;0.30;0.30;;;;;;;11.69;83.12;100849.53;5081105;22;20056;-59
2023/05/25 01:08:55;;;;;;;0.40;0.40;;;;;;;11.68;83.30;100858.22;5091429;22;20052;-59
2023/05/25 01:11:30;;;;;;;0.30;0.30;;;;;;;11.64;83.57;100849.56;5097950;22;20053;-66
2023/05/25 01:13:57;;;;;;;0.65;0.65;;;;;;;11.63;83.53;100850.41;5066146;28;20033;-66
2023/05/25 01:16:24;;;;;;;0.30;0.30;;;;;;;11.68;83.09;100847.81;5066701;28;20040;-66
2023/05/25 01:18:51;;;;;;;0.30;0.30;;;;;;;11.78;82.42;100858.13;5066825;28;20020;-66
2023/05/25 01:21:40;;;;;;;0.30;0.30;;;;;;;11.82;82.13;100871.97;5067010;28;20023;-65
2023/05/25 01:24:46;;;;;;;0.52;0.52;;;;;;;11.81;82.27;100870.25;5048961;28;20134;-66
2023/05/25 01:27:24;;;;;;;1.38;1.27;;;;;;;11.74;82.20;100864.22;4988366;28;20037;-66
2023/05/25 01:29:53;;;;;;;0.30;0.30;;;;;;;11.79;81.13;100871.97;5004932;28;20045;-66
2023/05/25 01:32:19;;;;;;;0.30;0.30;;;;;;;11.82;81.16;100878.94;5004862;28;20490;-66
2023/05/25 01:34:47;;;;;;;0.30;0.30;;;;;;;11.83;80.58;100873.72;5004825;28;20046;-66
2023/05/25 01:37:13;;;;;;;0.30;0.30;;;;;;;11.85;80.48;100879.75;5023515;22;20026;-59
2023/05/25 01:42:10;;;;;;;0.50;0.50;;;;;;;11.89;80.42;100878.00;5095831;22;20057;-69
2023/05/25 01:44:36;;;;;;;0.30;0.30;;;;;;;11.90;79.55;100870.19;5104530;22;20066;-63
2023/05/25 01:47:10;;;;;;;0.30;0.30;;;;;;;11.92;79.35;100870.19;5055463;22;20085;-67
2023/05/25 01:49:49;;;;;;;0.30;0.30;;;;;;;11.95;79.05;100882.31;5027543;28;20022;-65
2023/05/25 01:52:17;;;;;;;0.30;0.30;;;;;;;11.98;78.61;100879.69;5046585;28;20072;-65
2023/05/25 01:54:47;;;;;;;0.40;0.40;;;;;;;11.90;78.58;100867.59;5046362;28;20017;-66
2023/05/25 01:57:14;;;;;;;0.40;0.40;;;;;;;11.94;78.39;100875.38;5045369;28;20026;-66
2023/05/25 01:59:42;;;;;;;0.30;0.30;;;;;;;11.95;78.12;100872.75;5046346;28;20073;-65
2023/05/25 02:02:08;;;;;;;0.30;0.30;;;;;;;11.95;77.81;100887.53;5046051;28;20092;-65
2023/05/25 02:04:34;;;;;;;0.98;0.98;;;;;;;11.92;77.64;100892.75;5028199;28;20025;-65
2023/05/25 02:07:00;;;;;;;0.30;0.30;;;;;;;11.93;77.69;100897.06;5046082;28;20036;-65
2023/05/25 02:09:25;;;;;;;1.02;0.95;;;;;;;11.86;77.22;100883.22;5071639;23;20052;-60
2023/05/25 02:11:50;;;;;;;0.30;0.30;;;;;;;11.82;76.82;100882.38;5097219;22;20673;-65
2023/05/25 02:14:16;;;;;;;0.30;0.30;;;;;;;11.79;76.52;100887.59;5035714;22;20041;-62
2023/05/25 02:16:44;;;;;;;0.30;0.30;;;;;;;11.81;76.37;100882.38;5053680;22;20030;-67
2023/05/25 02:19:11;;;;;;;0.30;0.30;;;;;;;11.76;76.18;100878.09;5063136;28;20440;-67
2023/05/25 02:21:37;;;;;;;0.40;0.40;;;;;;;11.80;76.06;100889.34;5042074;22;20055;-60
2023/05/25 02:24:03;;;;;;;0.30;0.30;;;;;;;11.72;75.89;100884.19;5044508;28;20096;-60
2023/05/25 02:26:28;;;;;;;1.52;1.50;;;;;;;11.75;75.59;100885.91;5045644;28;20168;-59
2023/05/25 02:28:54;;;;;;;0.30;0.30;;;;;;;11.69;75.46;100881.59;5045693;28;20026;-60
2023/05/25 02:31:20;;;;;;;0.40;0.40;;;;;;;11.63;75.06;100884.22;5044360;28;20021;-60
2023/05/25 02:33:45;;;;;;;0.30;0.30;;;;;;;11.68;75.10;100892.03;5045342;28;20025;-60
2023/05/25 02:36:11;;;;;;;1.02;0.95;;;;;;;11.67;74.92;100908.47;5045816;28;20437;-59
2023/05/25 02:38:36;;;;;;;0.30;0.30;;;;;;;11.66;75.02;100912.84;5045776;28;20036;-60
2023/05/25 02:41:01;;;;;;;0.30;0.30;;;;;;;11.66;74.88;100892.03;5105002;22;20040;-60
2023/05/25 02:43:27;;;;;;;0.30;0.30;;;;;;;11.70;74.78;100911.06;5124656;22;20536;-69
2023/05/25 02:45:52;;;;;;;0.30;0.30;;;;;;;11.68;74.79;100905.88;5104190;28;20028;-70
2023/05/25 02:48:17;;;;;;;0.30;0.30;;;;;;;11.68;74.38;100916.25;5104654;28;20020;-70
2023/05/25 02:50:43;;;;;;;0.30;0.30;;;;;;;11.65;74.26;100922.34;5105683;28;20051;-69
2023/05/25 02:53:08;;;;;;;0.30;0.30;;;;;;;11.69;74.18;100920.63;5105224;28;20051;-70
2023/05/25 02:55:34;;;;;;;0.30;0.30;;;;;;;11.68;73.91;100921.47;5107273;28;20049;-70
2023/05/25 02:57:59;;;;;;;0.30;0.30;;;;;;;11.70;73.73;100935.34;5092640;23;20052;-62
2023/05/25 03:00:25;;;;;;;0.30;0.30;;;;;;;11.63;73.57;100924.09;5108193;22;20050;-65
2023/05/25 03:02:50;;;;;;;0.30;0.30;;;;;;;11.67;73.17;100942.28;5086618;28;20024;-66
2023/05/25 03:05:16;;;;;;;0.30;0.30;;;;;;;11.61;72.68;100941.44;5087122;28;20035;-66
2023/05/25 03:07:42;;;;;;;0.38;0.38;;;;;;;11.59;72.96;100958.78;5105224;28;20050;-66
2023/05/25 03:10:10;;;;;;;0.47;0.47;;;;;;;11.60;72.07;100952.72;5104580;28;20027;-66
2023/05/25 03:12:36;;;;;;;0.28;0.28;;;;;;;11.63;71.36;100955.31;5105119;28;20027;-65
2023/05/25 03:15:01;;;;;;;0.30;0.30;;;;;;;11.73;70.65;100963.06;5104794;28;20020;-66
2023/05/25 03:17:27;;;;;;;1.83;1.75;;;;;;;11.74;70.25;100962.22;5105008;28;20046;-66
2023/05/25 03:19:52;;;;;;;0.40;0.40;;;;;;;11.88;70.35;100968.22;5105041;28;20024;-65
2023/05/25 03:22:17;;;;;;;0.30;0.30;;;;;;;12.02;70.46;100972.47;5105073;28;20027;-66
2023/05/25 03:24:43;;;;;;;0.30;0.30;;;;;;;12.13;69.78;100982.84;5104954;28;20032;-67
2023/05/25 03:27:08;;;;;;;0.40;0.40;;;;;;;12.21;69.64;100978.47;5104392;28;20024;-67
2023/05/25 03:29:34;;;;;;;0.30;0.30;;;;;;;12.25;67.70;100984.53;5103928;28;20012;-66
2023/05/25 03:31:59;;;;;;;0.40;0.40;;;;;;;12.22;66.43;101001.00;5092941;22;20064;-65
2023/05/25 03:34:25;;;;;;;0.30;0.30;;;;;;;12.23;65.32;100994.06;5082983;28;20158;-67
2023/05/25 03:36:52;;;;;;;0.30;0.30;;;;;;;12.35;65.28;100998.34;5083459;28;20028;-67
2023/05/25 03:39:17;;;;;;;0.30;0.30;;;;;;;12.48;65.83;101004.31;5084291;28;20444;-67
2023/05/25 03:41:43;;;;;;;0.30;0.30;;;;;;;12.57;64.92;101006.03;5084391;28;20017;-67
2023/05/25 03:44:09;;;;;;;0.30;0.30;;;;;;;12.66;64.02;101018.09;5093749;23;20048;-61
2023/05/25 03:46:35;;;;;;;0.30;0.30;;;;;;;12.75;63.87;101021.50;5127878;22;20059;-67
2023/05/25 03:49:00;;;;;;;5.30;2.75;;;;;;;12.85;62.19;101024.91;5121316;28;20099;-68
2023/05/25 03:51:28;;;;;;;0.30;0.30;;;;;;;12.97;62.00;101036.13;5104840;28;20016;-69
2023/05/25 03:53:53;;;;;;;2.28;1.00;;;;;;;13.06;60.84;101023.00;5123291;28;20027;-67
2023/05/25 03:56:19;;;;;;;0.30;0.30;;;;;;;13.18;59.30;101036.81;5104748;28;20015;-66
2023/05/25 03:58:44;;;;;;;0.30;0.30;;;;;;;13.30;59.86;101043.63;5104721;28;20015;-66
2023/05/25 04:01:11;;;;;;;0.30;0.30;;;;;;;13.40;58.96;101040.06;5122792;28;20128;-66
2023/05/25 04:03:36;;;;;;;0.30;0.30;;;;;;;13.46;58.13;101028.72;5122954;28;20055;-67
2023/05/25 04:06:02;;;;;;;0.30;0.30;;;;;;;13.59;57.37;101035.56;5122550;28;20453;-68
2023/05/25 04:08:28;;;;;;;0.30;0.30;;;;;;;13.70;57.34;101048.50;5103620;22;20098;-61
2023/05/25 04:10:53;;;;;;;0.28;0.28;;;;;;;13.85;57.28;101037.00;5107804;22;20056;-67
2023/05/25 04:13:18;;;;;;;0.30;0.30;;;;;;;14.02;56.53;101048.97;5120053;22;20059;-60
2023/05/25 04:15:44;;;;;;;0.30;0.30;;;;;;;14.13;55.83;101054.06;5091241;22;20049;-68
2023/05/25 04:18:09;;;;;;;9.10;3.33;;;;;;;14.17;55.87;101052.28;5082879;28;20052;-67
2023/05/25 04:20:35;;;;;;;0.43;0.43;;;;;;;14.16;54.74;101055.75;5088786;22;20052;-61
2023/05/25 04:23:00;;;;;;;0.30;0.30;;;;;;;14.15;55.45;101052.31;5082992;28;20105;-60
2023/05/25 04:25:25;;;;;;;3.35;2.47;;;;;;;14.28;54.30;101060.81;5083836;28;20027;-61
2023/05/25 04:27:52;;;;;;;0.30;0.30;;;;;;;14.37;53.88;101054.63;5083843;28;20024;-61
2023/05/25 04:30:18;;;;;;;0.30;0.30;;;;;;;14.42;52.29;101065.88;5084007;28;20016;-60
2023/05/25 04:32:45;;;;;;;0.30;0.30;;;;;;;14.35;52.49;101064.22;5083922;28;20023;-60
2023/05/25 04:35:13;;;;;;;0.30;0.30;;;;;;;14.52;52.67;101066.59;5083436;28;20051;-60
2023/05/25 04:37:39;;;;;;;0.30;0.30;;;;;;;14.73;53.33;101070.63;5065339;28;20419;-59
2023/05/25 04:40:15;;;;;;;0.30;0.30;;;;;;;14.93;52.27;101073.88;5083764;28;20083;-60
2023/05/25 04:42:40;;;;;;;0.30;0.30;;;;;;;15.08;51.42;101068.38;5083770;28;20012;-59
2023/05/25 04:45:09;;;;;;;2.40;2.20;;;;;;;15.16;50.04;101086.56;5091769;22;20048;-68
2023/05/25 04:47:36;;;;;;;0.30;0.30;;;;;;;15.26;51.04;101084.66;5085123;23;20139;-60
2023/05/25 04:50:01;;;;;;;0.20;0.20;;;;;;;15.51;50.52;101089.44;5086766;23;20254;-68
2023/05/25 04:52:27;;;;;;;0.40;0.40;;;;;;;15.65;50.05;101083.97;5082448;28;20246;-68
2023/05/25 04:54:52;;;;;;;0.30;0.30;;;;;;;15.75;48.97;101087.25;5083540;28;20103;-67
2023/05/25 04:57:18;;;;;;;0.43;0.43;;;;;;;15.69;47.68;101098.72;5083432;28;20055;-68
2023/05/25 04:59:43;;;;;;;1.67;1.33;;;;;;;15.63;48.31;101093.59;5083621;28;20024;-67
2023/05/25 05:02:08;;;;;;;0.20;0.20;;;;;;;15.56;47.55;101094.63;5065513;28;20100;-68
2023/05/25 05:04:36;;;;;;;1.25;1.25;;;;;;;15.49;47.02;101107.78;5082903;28;20025;-68
2023/05/25 05:07:02;;;;;;;0.30;0.30;;;;;;;15.39;46.68;101105.38;5064119;28;20032;-67
2023/05/25 05:09:27;;;;;;;0.30;0.30;;;;;;;15.43;46.67;101115.75;5083140;28;20073;-67
2023/05/25 05:11:53;;;;;;;0.30;0.30;;;;;;;15.74;47.57;101119.56;5064956;28;20092;-67
2023/05/25 05:14:18;;;;;;;0.28;0.28;;;;;;;15.93;46.76;101108.75;5083537;28;20025;-68
2023/05/25 05:16:43;;;;;;;0.30;0.30;;;;;;;16.08;46.35;101111.09;5082973;28;20039;-68
2023/05/25 05:19:09;;;;;;;0.30;0.30;;;;;;;16.30;46.46;101109.78;5082172;28;20532;-69
2023/05/25 05:21:34;;;;;;;0.40;0.40;;;;;;;16.78;45.85;101124.47;5089553;23;20136;-62
2023/05/25 05:24:00;;;;;;;0.20;0.20;;;;;;;16.92;43.72;101124.13;5103093;23;20206;-68
2023/05/25 05:26:26;;;;;;;0.30;0.30;;;;;;;16.75;42.34;101116.69;5082209;28;20020;-68
2023/05/25 05:28:51;;;;;;;0.30;0.30;;;;;;;16.84;43.41;101115.59;5083347;28;20458;-68
2023/05/25 05:31:18;;;;;;;0.30;0.30;;;;;;;17.29;44.05;101118.91;5065366;28;20028;-67
2023/05/25 05:33:44;;;;;;;2.35;2.25;;;;;;;17.55;41.65;101122.66;5086693;28;20159;-67
2023/05/25 05:36:09;;;;;;;0.20;0.20;;;;;;;17.56;41.41;101125.22;5087033;28;20103;-68
2023/05/25 05:38:35;;;;;;;0.45;0.45;;;;;;;17.55;42.21;101126.13;5068817;28;20031;-67
2023/05/25 05:41:01;;;;;;;0.20;0.20;;;;;;;17.57;40.45;101105.94;5086680;28;20038;-67
2023/05/25 05:43:27;;;;;;;0.20;0.20;;;;;;;17.49;40.06;101128.94;5086595;28;20080;-66
2023/05/25 05:45:52;;;;;;;0.50;0.50;;;;;;;17.18;40.57;101138.44;5086764;28;20084;-69
2023/05/25 05:48:17;;;;;;;0.20;0.20;;;;;;;17.30;41.67;101137.25;5086423;28;20084;-68
2023/05/25 05:50:43;;;;;;;0.20;0.20;;;;;;;17.50;40.28;101137.66;5086377;28;20020;-68
2023/05/25 05:53:08;;;;;;;0.20;0.20;;;;;;;17.59;40.99;101148.78;5086317;28;20475;-68
2023/05/25 05:55:34;;;;;;;0.70;0.70;;;;;;;17.82;39.38;101138.56;5074601;23;20495;-61
2023/05/25 06:08:28;;;;;;;0.20;0.20;;;;;;;18.44;37.19;101159.63;5064684;28;20049;-60
2023/05/25 06:10:54;;;;;;;1.50;1.40;;;;;;;18.13;36.75;101160.53;5066456;28;20467;-61
2023/05/25 06:13:20;;;;;;;0.20;0.20;;;;;;;17.83;38.16;101162.16;5066300;28;20085;-60
2023/05/25 06:15:46;;;;;;;0.20;0.20;;;;;;;17.79;37.10;101170.16;5066402;28;20025;-60
2023/05/25 06:18:11;;;;;;;0.20;0.20;;;;;;;17.52;37.46;101176.09;5065738;28;20049;-59
2023/05/25 06:23:08;;;;;;;0.30;0.30;;;;;;;17.71;38.74;101176.50;5083564;28;20045;-60
2023/05/25 06:25:33;;;;;;;0.40;0.40;;;;;;;18.03;38.62;101178.28;5086271;28;20013;-60
2023/05/25 06:27:58;;;;;;;0.20;0.20;;;;;;;18.43;38.99;101189.47;5089691;22;20060;-60
2023/05/25 06:30:24;;;;;;;0.20;0.20;;;;;;;18.90;36.93;101193.31;5085139;28;20020;-61
2023/05/25 06:32:49;;;;;;;0.30;0.30;;;;;;;18.91;37.19;101200.34;5084946;28;20031;-61
2023/05/25 06:35:18;;;;;;;0.20;0.20;;;;;;;18.93;35.99;101188.84;5085843;28;20028;-59
2023/05/25 06:37:45;;;;;;;0.40;0.40;;;;;;;19.11;35.95;101193.59;5085888;28;20025;-59
2023/05/25 06:40:11;;;;;;;0.30;0.30;;;;;;;18.99;34.70;101185.19;5085838;28;20029;-60
2023/05/25 06:42:36;;;;;;;0.20;0.20;;;;;;;18.68;33.94;101191.38;5085681;28;20047;-59
2023/05/25 06:45:05;;;;;;;0.30;0.30;;;;;;;18.38;34.38;101191.38;5086120;28;20135;-59
2023/05/25 06:47:30;;;;;;;0.20;0.20;;;;;;;17.93;34.93;101182.91;5085616;28;20046;-60
2023/05/25 06:49:56;;;;;;;0.20;0.20;;;;;;;17.79;34.88;101181.53;5085811;28;20016;-60
2023/05/25 06:52:21;;;;;;;0.30;0.30;;;;;;;17.80;35.96;101196.38;5085445;28;20021;-59
2023/05/25 06:54:46;;;;;;;0.30;0.30;;;;;;;18.45;36.88;101195.56;5085625;28;20036;-60
2023/05/25 06:57:12;;;;;;;0.20;0.20;;;;;;;19.12;34.84;101197.97;5085566;28;20074;-60
2023/05/25 06:59:37;;;;;;;0.20;0.20;;;;;;;19.68;34.80;101209.31;5085308;28;20024;-60
2023/05/25 07:02:03;;;;;;;0.20;0.20;;;;;;;19.97;33.27;101193.41;5085596;28;20046;-60
2023/05/25 07:04:28;;;;;;;0.32;0.32;;;;;;;19.97;33.24;101207.44;5085230;28;20046;-60
2023/05/25 07:06:53;;;;;;;0.20;0.20;;;;;;;19.85;31.54;101179.75;5085323;28;20062;-59
2023/05/25 07:09:20;;;;;;;0.20;0.20;;;;;;;19.32;30.15;101186.78;5085465;28;20020;-60
2023/05/25 07:11:45;;;;;;;0.20;0.20;;;;;;;18.81;31.69;101202.38;5085042;28;20016;-59
2023/05/25 07:14:12;;;;;;;0.20;0.20;;;;;;;18.75;32.36;101195.53;5085386;28;20043;-60
2023/05/25 07:16:37;;;;;;;0.20;0.20;;;;;;;18.94;32.04;101203.75;5085184;28;20024;-62
2023/05/25 07:19:02;;;;;;;0.30;0.30;;;;;;;18.80;31.62;101200.66;5121358;22;20047;-61
2023/05/25 07:21:32;;;;;;;0.20;0.20;;;;;;;18.81;31.95;101199.75;5124621;28;20015;-60
2023/05/25 07:23:57;;;;;;;0.73;0.73;;;;;;;18.56;31.76;101209.22;5125411;28;20023;-61
2023/05/25 07:26:24;;;;;;;1.00;1.00;;;;;;;18.77;32.57;101213.91;5125637;28;20468;-59
2023/05/25 07:28:50;;;;;;;0.20;0.20;;;;;;;18.79;32.50;101198.94;5124447;28;20618;-60
2023/05/25 07:31:16;;;;;;;0.25;0.25;;;;;;;18.99;31.82;101214.13;5125075;28;20023;-60
2023/05/25 07:33:42;;;;;;;0.20;0.20;;;;;;;19.14;31.57;101217.19;5125372;28;20076;-59
2023/05/25 07:36:08;;;;;;;0.50;0.50;;;;;;;19.30;31.92;101207.03;5125603;28;20045;-60
2023/05/25 07:38:34;;;;;;;0.20;0.20;;;;;;;19.44;31.91;101212.72;5125462;28;20039;-60
2023/05/25 07:40:59;;;;;;;0.20;0.20;;;;;;;19.47;31.73;101209.13;5125646;28;20024;-59
2023/05/25 07:43:26;;;;;;;0.55;0.55;;;;;;;19.97;32.75;101220.59;5125222;28;20094;-60
2023/05/25 07:45:51;;;;;;;0.20;0.20;;;;;;;20.89;32.76;101219.94;5125540;28;20020;-60
2023/05/25 07:48:17;;;;;;;0.20;0.20;;;;;;;21.66;29.81;101224.84;5124992;28;20655;-60
2023/05/25 07:50:42;;;;;;;0.20;0.20;;;;;;;21.94;30.25;101225.44;5125527;28;20020;-61
2023/05/25 07:53:07;;;;;;;0.20;0.20;;;;;;;22.56;31.16;101221.84;5125018;28;20019;-60
2023/05/25 07:55:33;;;;;;;0.40;0.40;;;;;;;23.08;29.18;101230.91;5124462;28;20019;-59
2023/05/25 07:57:58;;;;;;;0.20;0.20;;;;;;;23.43;27.10;101222.19;5125266;28;20026;-60
2023/05/25 08:00:24;;;;;;;0.20;0.20;;;;;;;23.53;28.17;101228.78;5124980;28;20020;-60
2023/05/25 08:02:49;;;;;;;0.10;0.10;;;;;;;24.02;28.37;101225.38;5124916;28;20087;-59
2023/05/25 08:05:15;;;;;;;0.63;0.63;;;;;;;24.51;28.05;101222.84;5124688;28;20019;-60
2023/05/25 08:07:40;;;;;;;0.10;0.10;;;;;;;24.89;27.98;101219.03;5124792;28;20031;-59
2023/05/25 08:10:07;;;;;;;0.10;0.10;;;;;;;25.08;24.72;101210.03;5106642;28;20024;-60
2023/05/25 08:12:32;;;;;;;0.20;0.20;;;;;;;23.85;24.65;101230.72;5124787;28;20024;-59
2023/05/25 08:14:58;;;;;;;0.20;0.20;;;;;;;23.20;25.80;101226.81;5124965;28;20107;-61
2023/05/25 08:17:24;;;;;;;0.40;0.40;;;;;;;23.21;26.26;101221.44;5124686;28;20020;-59
2023/05/25 08:19:49;;;;;;;0.10;0.10;;;;;;;23.21;26.09;101220.59;5124381;28;20047;-59
2023/05/25 08:22:15;;;;;;;0.22;0.22;;;;;;;23.58;27.37;101228.53;5124826;28;20018;-60
2023/05/25 08:24:40;;;;;;;0.10;0.10;;;;;;;24.11;27.00;101236.44;5124828;28;20037;-59
2023/05/25 08:27:06;;;;;;;0.40;0.40;;;;;;;24.68;26.49;101227.22;5124630;28;20080;-59
2023/05/25 08:29:31;;;;;;;0.10;0.10;;;;;;;25.16;25.39;101236.16;5124600;28;20020;-60
2023/05/25 08:31:57;;;;;;;0.10;0.10;;;;;;;24.73;24.00;101227.81;5124893;28;20145;-60
2023/05/25 08:34:22;;;;;;;0.10;0.10;;;;;;;23.82;24.44;101238.81;5124539;28;20051;-59
2023/05/25 08:36:48;;;;;;;0.10;0.10;;;;;;;23.15;25.70;101237.63;5124730;28;20019;-60
2023/05/25 08:39:14;;;;;;;0.20;0.20;;;;;;;22.81;25.54;101248.06;5106239;28;20027;-60
2023/05/25 08:41:41;;;;;;;0.20;0.20;;;;;;;22.71;26.64;101250.28;5124528;28;20027;-60
2023/05/25 08:44:07;;;;;;;0.10;0.10;;;;;;;23.34;26.95;101257.94;5124734;28;20008;-59
2023/05/25 08:46:33;;;;;;;0.10;0.10;;;;;;;24.12;27.31;101254.06;5124548;28;20019;-60
2023/05/25 08:49:09;;;;;;;0.10;0.10;;;;;;;24.86;25.17;101249.25;5124238;28;20027;-60
2023/05/25 08:51:36;;;;;;;0.10;0.10;;;;;;;24.55;24.84;101242.13;5124478;28;20019;-60
2023/05/25 08:54:08;;;;;;;0.10;0.10;;;;;;;24.49;24.16;101249.47;5124370;28;20035;-59
2023/05/25 08:56:45;;;;;;;0.65;0.65;;;;;;;24.20;23.93;101254.53;5124599;28;20043;-60
2023/05/25 08:59:35;;;;;;;0.20;0.20;;;;;;;24.52;25.86;101256.44;5124622;28;20030;-61
2023/05/25 09:02:27;;;;;;;2.10;1.30;;;;;;;25.29;25.26;101258.41;5124381;28;20031;-60
2023/05/25 09:04:53;;;;;;;0.20;0.20;;;;;;;25.89;23.22;101253.22;5085445;28;20081;-59
2023/05/25 09:07:20;;;;;;;0.10;0.10;;;;;;;25.75;23.88;101267.34;5126177;28;20051;-60
2023/05/25 09:09:46;;;;;;;0.10;0.10;;;;;;;26.06;24.19;101269.94;5128285;28;20038;-61
2023/05/25 09:12:14;;;;;;;0.15;0.15;;;;;;;26.42;24.54;101262.50;5128072;28;20019;-60
2023/05/25 09:14:44;;;;;;;0.10;0.10;;;;;;;26.90;24.50;101262.09;5128320;28;20482;-60
2023/05/25 09:17:12;;;;;;;0.10;0.10;;;;;;;27.17;23.13;101258.66;5128421;28;20051;-59
2023/05/25 09:19:37;;;;;;;0.10;0.10;;;;;;;27.41;24.06;101263.31;5127689;28;20044;-58
2023/05/25 09:22:03;;;;;;;0.15;0.15;;;;;;;27.61;23.82;101263.78;5128202;28;20027;-59
2023/05/25 09:24:29;;;;;;;0.20;0.20;;;;;;;27.42;23.15;101259.69;5128154;28;20054;-60
2023/05/25 09:26:55;;;;;;;2.42;2.33;;;;;;;27.20;21.38;101233.59;5128053;28;20101;-60
2023/05/25 09:29:20;;;;;;;0.10;0.10;;;;;;;26.81;21.85;101260.03;5128048;28;20019;-60
2023/05/25 09:31:46;;;;;;;0.10;0.10;;;;;;;26.65;21.92;101258.38;5127792;28;20023;-60
2023/05/25 09:34:13;;;;;;;0.10;0.10;;;;;;;26.29;22.15;101265.88;5127736;28;20031;-59
2023/05/25 09:36:40;;;;;;;0.85;0.85;;;;;;;26.26;23.05;101255.44;5127891;28;20023;-59
2023/05/25 09:39:10;;;;;;;0.30;0.30;;;;;;;26.65;22.53;101268.16;5127908;28;20030;-59
2023/05/25 09:41:45;;;;;;;0.10;0.10;;;;;;;26.77;22.53;101259.41;5127826;28;20115;-59
2023/05/25 09:44:10;;;;;;;0.10;0.10;;;;;;;26.97;22.33;101266.09;5127831;28;20480;-59
2023/05/25 09:46:37;;;;;;;0.10;0.10;;;;;;;26.71;21.70;101265.97;5127667;28;20493;-60
2023/05/25 09:49:06;;;;;;;0.10;0.10;;;;;;;26.18;22.58;101258.53;5127444;28;20019;-59
2023/05/25 09:51:32;;;;;;;0.10;0.10;;;;;;;26.22;23.05;101265.41;5127653;28;20028;-59
2023/05/25 09:54:08;;;;;;;0.10;0.10;;;;;;;26.02;23.22;101273.75;5127529;28;20085;-59
2023/05/25 09:56:34;;;;;;;0.10;0.10;;;;;;;26.06;23.24;101283.25;5127558;28;20347;-59
2023/05/25 09:59:00;;;;;;;0.10;0.10;;;;;;;25.57;23.27;101270.09;5127591;28;20046;-59
2023/05/25 10:01:26;;;;;;;0.10;0.10;;;;;;;24.98;23.50;101271.66;5127589;28;20147;-60
2023/05/25 10:03:55;;;;;;;0.80;0.80;;;;;;;24.61;24.54;101268.31;5127265;28;20016;-59
2023/05/25 10:06:21;;;;;;;0.20;0.20;;;;;;;24.43;24.61;101283.44;5127694;28;20039;-59
2023/05/25 10:08:48;;;;;;;0.10;0.10;;;;;;;24.61;25.09;101287.78;5127121;28;20543;-59
2023/05/25 10:11:14;;;;;;;0.10;0.10;;;;;;;24.74;24.96;101297.72;5127264;28;20028;-59
2023/05/25 10:13:43;;;;;;;0.30;0.30;;;;;;;24.62;25.05;101304.53;5127116;28;20087;-59
2023/05/25 10:16:16;;;;;;;3.20;1.55;;;;;;;24.67;24.95;101289.22;5127061;28;20069;-59
2023/05/25 10:18:50;;;;;;;0.95;0.95;;;;;;;24.47;25.25;101309.72;5126106;28;20047;-59
2023/05/25 10:21:18;;;;;;;0.13;0.13;;;;;;;24.29;25.43;101316.88;5127302;28;20028;-60
2023/05/25 10:23:49;;;;;;;0.22;0.22;;;;;;;24.31;25.45;101319.44;5127243;28;20027;-59
2023/05/25 10:26:18;;;;;;;;;;;;;;;24.00;25.39;101322.72;5127434;28;20094;-60
2023/05/25 10:28:46;;;;;;;0.38;0.38;;;;;;;23.88;25.70;101326.84;5126957;28;19915;-59
2023/05/25 10:31:13;;;;;;;0.30;0.30;;;;;;;23.73;25.91;101323.19;5126887;28;20024;-59
2023/05/25 10:33:39;;;;;;;0.10;0.10;;;;;;;23.59;26.00;101315.91;5126441;28;20047;-59
2023/05/25 10:36:05;;;;;;;0.25;0.25;;;;;;;23.80;26.33;101330.81;5126870;28;20014;-60
2023/05/25 10:38:32;;;;;;;0.20;0.20;;;;;;;24.08;26.40;101322.31;5126700;28;20047;-60
2023/05/25 10:41:03;;;;;;;0.30;0.30;;;;;;;24.13;25.56;101330.03;5126765;28;20038;-60
2023/05/25 10:43:29;;;;;;;0.10;0.10;;;;;;;23.93;25.26;101331.06;5126601;28;20027;-59
2023/05/25 10:45:55;;;;;;;1.10;1.10;;;;;;;23.43;25.74;101333.47;5126598;28;20030;-59
2023/05/25 10:48:21;;;;;;;0.20;0.20;;;;;;;23.04;26.69;101325.53;5126323;28;20083;-59
2023/05/25 10:50:50;;;;;;;1.23;1.13;;;;;;;22.98;26.87;101321.41;5126570;28;20071;-60
2023/05/25 10:53:19;;;;;;;0.10;0.10;;;;;;;23.09;26.55;101302.34;5126348;28;20047;-59
2023/05/25 10:55:51;;;;;;;1.02;0.95;;;;;;;22.65;27.23;101317.56;5126517;28;20019;-61
2023/05/25 10:58:18;;;;;;;0.50;0.50;;;;;;;22.52;27.81;101309.28;5126294;28;20031;-59
2023/05/25 11:01:08;;;;;;;0.20;0.20;;;;;;;22.01;28.12;101304.41;5126452;28;20028;-60
2023/05/25 11:03:42;;;;;;;1.15;1.10;;;;;;;21.64;28.81;101316.50;5125997;28;20030;-59
2023/05/25 11:06:12;;;;;;;0.20;0.20;;;;;;;21.22;29.08;101312.84;5126216;28;20027;-59
2023/05/25 11:08:50;;;;;;;0.20;0.20;;;;;;;20.91;29.26;101313.13;5126235;28;20030;-60
2023/05/25 11:11:16;;;;;;;1.88;1.30;;;;;;;20.56;29.90;101317.88;5126146;28;20051;-60
2023/05/25 11:13:49;;;;;;;0.20;0.20;;;;;;;20.20;30.40;101324.41;5125958;28;20024;-60
2023/05/25 11:16:29;;;;;;;0.30;0.30;;;;;;;20.03;30.42;101311.81;5126039;28;20078;-59
2023/05/25 11:18:57;;;;;;;0.20;0.20;;;;;;;19.66;30.56;101301.56;5125639;28;20074;-60
2023/05/25 11:21:25;;;;;;;0.20;0.20;;;;;;;19.28;31.27;101322.91;5126067;28;20076;-60
2023/05/25 11:23:56;;;;;;;0.20;0.20;;;;;;;19.03;31.57;101328.00;5125757;28;20038;-60
2023/05/25 11:26:52;;;;;;;0.20;0.20;;;;;;;18.96;32.00;101322.09;5125820;28;20036;-61
2023/05/25 11:29:19;;;;;;;0.20;0.20;;;;;;;18.83;31.92;101321.56;5115226;28;20100;-60
2023/05/25 11:31:54;;;;;;;0.20;0.20;;;;;;;18.72;32.31;101334.16;5125373;28;20055;-60
2023/05/25 11:34:23;;;;;;;0.20;0.20;;;;;;;18.54;32.38;101341.66;5125369;28;20027;-60
2023/05/25 11:36:56;;;;;;;0.40;0.40;;;;;;;18.37;32.40;101328.97;5125716;28;20087;-59
2023/05/25 11:39:22;;;;;;;0.20;0.20;;;;;;;18.19;32.17;101325.91;5125544;28;20020;-60
2023/05/25 11:41:51;;;;;;;0.20;0.20;;;;;;;18.00;32.39;101323.72;5125532;28;20022;-60